createdAt,value
2023-03-06T00:01:34.432Z,2.40
2023-03-06T00:04:01.424Z,2.58
2023-03-06T00:06:28.231Z,2.90
2023-03-06T00:08:55.199Z,2.67
2023-03-06T00:11:22.023Z,2.10
2023-03-06T00:13:48.866Z,2.23
2023-03-06T00:16:15.928Z,2.30
2023-03-06T00:18:42.784Z,2.83
2023-03-06T00:21:10.001Z,3.60
2023-03-06T00:23:37.025Z,3.42
2023-03-06T00:26:07.755Z,3.60
2023-03-06T00:28:35.266Z,3.40
2023-03-06T00:31:03.539Z,3.47
2023-03-06T00:33:30.627Z,3.42
2023-03-06T00:35:57.707Z,3.15
2023-03-06T00:38:24.579Z,3.40
2023-03-06T00:40:51.480Z,3.47
2023-03-06T00:43:18.302Z,3.65
2023-03-06T00:45:45.274Z,3.65
2023-03-06T00:48:12.211Z,3.90
2023-03-06T00:50:39.152Z,3.80
2023-03-06T00:53:06.041Z,3.83
2023-03-06T00:55:32.927Z,4.43
2023-03-06T00:57:59.712Z,4.53
2023-03-06T01:00:26.742Z,4.10
2023-03-06T01:02:53.575Z,3.57
2023-03-06T01:05:20.559Z,3.80
2023-03-06T01:07:47.465Z,3.50
2023-03-06T01:10:14.430Z,3.85
2023-03-06T01:12:41.234Z,4.07
2023-03-06T01:15:08.848Z,3.90
2023-03-06T01:17:35.742Z,3.30
2023-03-06T01:20:02.617Z,4.13
2023-03-06T01:22:29.681Z,4.00
2023-03-06T01:24:56.493Z,4.60
2023-03-06T01:27:23.274Z,4.60
2023-03-06T01:29:50.213Z,4.80
2023-03-06T01:32:17.003Z,5.25
2023-03-06T01:34:43.754Z,6.20
2023-03-06T01:37:10.809Z,5.40
2023-03-06T01:39:37.566Z,5.90
2023-03-06T01:42:05.027Z,5.70
2023-03-06T01:44:31.979Z,6.03
2023-03-06T01:46:58.776Z,6.55
2023-03-06T01:49:41.936Z,6.80
2023-03-06T01:52:12.398Z,7.27
2023-03-06T01:54:45.009Z,8.50
2023-03-06T01:57:29.488Z,8.65
2023-03-06T02:00:03.696Z,8.13
2023-03-06T02:02:30.636Z,8.70
2023-03-06T02:04:59.850Z,8.53
2023-03-06T02:07:27.056Z,8.13
2023-03-06T02:09:54.080Z,8.50
2023-03-06T02:12:22.832Z,8.85
2023-03-06T02:14:50.292Z,8.82
2023-03-06T02:17:20.157Z,8.27
2023-03-06T02:20:25.830Z,8.15
2023-03-06T02:23:02.054Z,7.97
2023-03-06T02:25:42.486Z,7.75
2023-03-06T02:28:15.406Z,8.35
2023-03-06T02:30:44.515Z,8.13
2023-03-06T02:33:14.358Z,7.57
2023-03-06T02:35:46.943Z,7.45
2023-03-06T02:38:19.048Z,6.72
2023-03-06T02:40:49.934Z,6.70
2023-03-06T02:43:21.260Z,5.93
2023-03-06T02:45:50.753Z,6.50
2023-03-06T02:48:18.782Z,5.10
2023-03-06T02:50:46.718Z,5.88
2023-03-06T02:53:15.678Z,5.53
2023-03-06T02:55:42.676Z,6.07
2023-03-06T02:58:09.896Z,6.30
2023-03-06T03:00:37.129Z,5.15
2023-03-06T03:03:04.596Z,4.38
2023-03-06T03:05:32.020Z,4.13
2023-03-06T03:07:59.079Z,3.43
2023-03-06T03:10:26.099Z,3.30
2023-03-06T03:12:52.965Z,2.97
2023-03-06T03:15:19.991Z,2.83
2023-03-06T03:17:46.836Z,2.80
2023-03-06T03:20:17.396Z,2.30
2023-03-06T03:22:52.034Z,2.50
2023-03-06T03:25:19.693Z,2.80
2023-03-06T03:27:46.606Z,2.50
2023-03-06T03:30:14.201Z,2.80
2023-03-06T03:32:41.217Z,2.80
2023-03-06T03:35:09.409Z,2.90
2023-03-06T03:37:37.046Z,2.72
2023-03-06T03:40:04.689Z,2.53
2023-03-06T03:42:31.518Z,2.60
2023-03-06T03:44:58.611Z,2.80
2023-03-06T03:47:25.436Z,2.72
2023-03-06T03:49:52.244Z,3.20
2023-03-06T03:52:19.224Z,2.88
2023-03-06T03:54:46.075Z,3.10
2023-03-06T03:57:12.947Z,3.00
2023-03-06T03:59:39.873Z,3.00
2023-03-06T04:02:06.708Z,3.45
2023-03-06T04:04:33.609Z,3.20
2023-03-06T04:07:00.541Z,3.25
2023-03-06T04:09:27.474Z,2.83
2023-03-06T04:11:54.348Z,3.10
2023-03-06T04:14:21.264Z,3.13
2023-03-06T04:16:48.117Z,2.90
2023-03-06T04:19:15.058Z,2.80
2023-03-06T04:21:41.900Z,2.77
2023-03-06T04:24:09.070Z,3.15
2023-03-06T04:26:36.012Z,3.40
2023-03-06T04:29:03.021Z,2.90
2023-03-06T04:31:29.964Z,2.42
2023-03-06T04:33:56.801Z,1.90
2023-03-06T04:36:33.146Z,1.45
2023-03-06T04:39:00.377Z,1.52
2023-03-06T04:41:27.266Z,1.70
2023-03-06T04:43:54.287Z,1.50
2023-03-06T04:46:21.127Z,1.97
2023-03-06T04:48:48.016Z,1.77
2023-03-06T04:51:15.557Z,1.60
2023-03-06T04:53:42.459Z,1.48
2023-03-06T04:56:09.703Z,1.45
2023-03-06T04:58:36.942Z,1.40
2023-03-06T05:01:04.377Z,1.67
2023-03-06T05:03:31.286Z,1.60
2023-03-06T05:05:58.136Z,1.95
2023-03-06T05:08:25.046Z,1.90
2023-03-06T05:10:57.483Z,1.43
2023-03-06T05:13:24.601Z,1.70
2023-03-06T05:15:51.895Z,1.90
2023-03-06T05:18:19.091Z,1.80
2023-03-06T05:20:46.078Z,1.90
2023-03-06T05:23:13.008Z,2.10
2023-03-06T05:25:40.997Z,2.45
2023-03-06T05:28:08.464Z,2.30
2023-03-06T05:30:35.726Z,2.60
2023-03-06T05:33:02.574Z,2.78
2023-03-06T05:35:29.506Z,2.70
2023-03-06T05:37:56.621Z,2.22
2023-03-06T05:40:23.419Z,2.90
2023-03-06T05:42:50.402Z,2.80
2023-03-06T05:45:17.422Z,3.17
2023-03-06T05:47:44.417Z,3.40
2023-03-06T05:50:12.225Z,4.30
2023-03-06T05:52:39.171Z,3.80
2023-03-06T05:55:07.248Z,3.40
2023-03-06T05:57:34.107Z,3.70
2023-03-06T06:00:01.061Z,3.43
2023-03-06T06:02:27.921Z,2.88
2023-03-06T06:04:54.775Z,2.90
2023-03-06T06:07:21.579Z,3.40
2023-03-06T06:09:48.388Z,3.90
2023-03-06T06:12:15.297Z,3.53
2023-03-06T06:14:42.262Z,3.30
2023-03-06T06:17:09.311Z,2.40
2023-03-06T06:19:36.254Z,2.20
2023-03-06T06:22:03.154Z,2.47
2023-03-06T06:24:31.392Z,2.67
2023-03-06T06:27:00.892Z,2.40
2023-03-06T06:29:30.529Z,2.20
2023-03-06T06:31:57.676Z,2.13
2023-03-06T06:34:25.676Z,1.63
2023-03-06T06:36:53.743Z,1.77
2023-03-06T06:39:23.174Z,1.70
2023-03-06T06:42:28.163Z,1.63
2023-03-06T06:44:37.728Z,1.70
2023-03-06T06:47:24.635Z,2.35
2023-03-06T06:49:53.485Z,1.60
2023-03-06T06:52:20.884Z,1.90
2023-03-06T06:54:47.934Z,1.50
2023-03-06T06:57:15.399Z,1.80
2023-03-06T06:59:42.646Z,1.88
2023-03-06T07:02:14.643Z,2.00
2023-03-06T07:04:56.216Z,2.20
2023-03-06T07:07:28.698Z,2.25
2023-03-06T07:09:55.686Z,2.47
2023-03-06T07:12:22.530Z,2.20
2023-03-06T07:14:49.504Z,2.10
2023-03-06T07:17:16.357Z,2.20
2023-03-06T07:19:43.237Z,2.08
2023-03-06T07:22:10.244Z,2.10
2023-03-06T07:24:37.044Z,2.20
2023-03-06T07:27:03.994Z,2.20
2023-03-06T07:29:30.930Z,1.90
2023-03-06T07:31:57.668Z,1.58
2023-03-06T07:34:24.460Z,1.73
2023-03-06T07:36:51.318Z,1.77
2023-03-06T07:39:18.644Z,2.03
2023-03-06T07:41:45.475Z,2.35
2023-03-06T07:44:12.405Z,2.67
2023-03-06T07:46:39.252Z,2.90
2023-03-06T07:49:06.044Z,3.00
2023-03-06T07:51:33.083Z,2.83
2023-03-06T07:53:59.875Z,2.90
2023-03-06T07:56:26.652Z,3.10
2023-03-06T07:58:55.285Z,3.55
2023-03-06T08:01:23.016Z,3.70
2023-03-06T08:03:50.528Z,3.50
2023-03-06T08:06:23.170Z,3.58
2023-03-06T08:08:51.325Z,3.47
2023-03-06T08:11:19.507Z,3.70
2023-03-06T08:13:46.981Z,3.58
2023-03-06T08:16:13.761Z,3.50
2023-03-06T08:18:40.640Z,3.60
2023-03-06T08:21:13.500Z,3.72
2023-03-06T08:23:41.272Z,3.60
2023-03-06T08:26:12.107Z,3.72
2023-03-06T08:28:39.617Z,3.80
2023-03-06T08:31:12.520Z,3.80
2023-03-06T08:33:40.510Z,3.85
2023-03-06T08:36:07.704Z,3.88
2023-03-06T08:38:34.564Z,3.40
2023-03-06T08:41:01.529Z,3.67
2023-03-06T08:43:28.333Z,3.95
2023-03-06T08:45:57.055Z,3.85
2023-03-06T08:48:24.071Z,4.40
2023-03-06T08:50:51.304Z,3.67
2023-03-06T08:53:18.360Z,3.57
2023-03-06T08:55:45.162Z,3.80
2023-03-06T08:58:11.982Z,3.45
2023-03-06T09:00:39.292Z,3.55
2023-03-06T09:03:06.377Z,3.38
2023-03-06T09:05:33.259Z,3.17
2023-03-06T09:08:00.187Z,3.25
2023-03-06T09:10:27.980Z,3.45
2023-03-06T09:12:55.428Z,3.28
2023-03-06T09:15:23.215Z,3.63
2023-03-06T09:17:50.656Z,3.87
2023-03-06T09:20:18.650Z,3.85
2023-03-06T09:22:45.958Z,4.53
2023-03-06T09:25:13.888Z,4.05
2023-03-06T09:27:41.332Z,6.57
2023-03-06T09:30:09.000Z,7.20
2023-03-06T09:32:36.045Z,6.40
2023-03-06T09:35:03.148Z,6.85
2023-03-06T09:37:30.435Z,7.03
2023-03-06T09:39:57.424Z,4.40
2023-03-06T09:42:25.051Z,5.07
2023-03-06T09:45:01.290Z,4.80
2023-03-06T09:47:34.025Z,5.32
2023-03-06T09:50:25.729Z,4.30
2023-03-06T09:53:32.805Z,4.72
2023-03-06T09:56:10.400Z,3.70
2023-03-06T09:59:17.355Z,3.50
2023-03-06T10:01:54.444Z,3.22
2023-03-06T10:04:39.294Z,3.50
2023-03-06T10:07:15.768Z,3.70
2023-03-06T10:09:48.332Z,3.30
2023-03-06T10:12:27.157Z,3.45
2023-03-06T10:15:07.152Z,3.63
2023-03-06T10:17:43.329Z,2.90
2023-03-06T10:20:53.614Z,3.20
2023-03-06T10:23:45.391Z,4.40
2023-03-06T10:26:17.082Z,3.72
2023-03-06T10:29:11.871Z,3.53
2023-03-06T10:31:44.781Z,3.60
2023-03-06T10:34:21.948Z,3.60
2023-03-06T10:36:49.164Z,2.80
2023-03-06T10:39:21.731Z,4.43
2023-03-06T10:41:49.995Z,4.90
2023-03-06T10:44:19.662Z,4.80
2023-03-06T10:46:49.467Z,5.90
2023-03-06T10:49:34.294Z,5.57
2023-03-06T10:52:07.498Z,4.40
2023-03-06T10:54:39.968Z,4.30
2023-03-06T10:57:25.629Z,4.50
2023-03-06T10:59:58.432Z,5.65
2023-03-06T11:02:32.238Z,6.03
2023-03-06T11:05:01.331Z,4.60
2023-03-06T11:07:36.041Z,4.25
2023-03-06T11:10:32.225Z,4.78
2023-03-06T11:13:03.390Z,5.70
2023-03-06T11:15:30.807Z,4.77
2023-03-06T11:18:08.247Z,4.97
2023-03-06T11:20:52.858Z,5.70
2023-03-06T11:23:34.999Z,5.93
2023-03-06T11:26:37.288Z,6.03
2023-03-06T11:29:26.555Z,5.57
2023-03-06T11:32:04.376Z,5.20
2023-03-06T11:34:53.398Z,5.38
2023-03-06T11:37:32.356Z,4.53
2023-03-06T11:40:11.082Z,4.82
2023-03-06T11:42:48.142Z,4.10
2023-03-06T11:45:33.420Z,4.05
2023-03-06T11:48:15.303Z,3.60
2023-03-06T11:50:46.344Z,4.10
2023-03-06T11:53:34.942Z,4.13
2023-03-06T11:56:20.325Z,3.70
2023-03-06T11:59:17.631Z,4.10
2023-03-06T12:02:15.365Z,4.60
2023-03-06T12:05:12.325Z,4.60
2023-03-06T12:08:11.438Z,5.00
2023-03-06T12:10:51.885Z,5.10
2023-03-06T12:13:46.267Z,4.95
2023-03-06T12:16:35.065Z,4.00
2023-03-06T12:19:31.683Z,5.35
2023-03-06T12:22:01.466Z,5.65
2023-03-06T12:25:05.135Z,4.20
2023-03-06T12:28:01.909Z,3.60
2023-03-06T12:30:31.847Z,4.38
2023-03-06T12:33:20.412Z,4.40
2023-03-06T12:36:02.198Z,4.30
2023-03-06T12:38:48.851Z,4.40
2023-03-06T12:41:56.159Z,5.13
2023-03-06T12:44:29.071Z,4.50
2023-03-06T12:47:03.094Z,4.50
2023-03-06T12:49:33.384Z,4.60
2023-03-06T12:52:02.307Z,5.00
2023-03-06T12:54:33.739Z,4.45
2023-03-06T12:57:01.167Z,4.13
2023-03-06T12:59:47.624Z,5.20
2023-03-06T13:02:23.346Z,6.78
2023-03-06T13:05:21.139Z,5.77
2023-03-06T13:07:50.705Z,4.75
2023-03-06T13:10:29.069Z,4.32
2023-03-06T13:12:59.376Z,4.72
2023-03-06T13:16:04.416Z,5.05
2023-03-06T13:18:34.024Z,4.57
2023-03-06T13:21:01.267Z,6.13
2023-03-06T13:23:31.016Z,4.70
2023-03-06T13:26:19.246Z,4.13
2023-03-06T13:28:48.563Z,3.65
2023-03-06T13:31:28.288Z,4.00
2023-03-06T13:33:58.688Z,3.47
2023-03-06T13:36:31.508Z,3.60
2023-03-06T13:39:07.446Z,3.40
2023-03-06T13:41:41.886Z,3.30
2023-03-06T13:44:23.740Z,3.83
2023-03-06T13:47:19.645Z,4.57
2023-03-06T13:49:48.566Z,6.50
2023-03-06T13:52:27.271Z,4.10
2023-03-06T13:55:31.937Z,8.68
2023-03-06T13:58:18.376Z,5.23
2023-03-06T14:01:36.039Z,4.80
2023-03-06T14:04:37.118Z,11.02
2023-03-06T14:07:07.060Z,6.60
2023-03-06T14:10:15.349Z,6.15
2023-03-06T14:12:42.317Z,5.80
2023-03-06T14:15:35.057Z,4.80
2023-03-06T14:18:14.142Z,4.85
2023-03-06T14:20:48.908Z,4.28
2023-03-06T14:23:33.897Z,4.85
2023-03-06T14:26:02.864Z,4.80
2023-03-06T14:28:31.801Z,5.43
2023-03-06T14:31:01.031Z,5.38
2023-03-06T14:33:53.847Z,4.47
2023-03-06T14:36:26.568Z,4.78
2023-03-06T14:38:57.028Z,4.70
2023-03-06T14:41:35.693Z,4.60
2023-03-06T14:44:17.729Z,4.60
2023-03-06T14:46:49.998Z,4.78
2023-03-06T14:49:19.788Z,4.18
2023-03-06T14:51:58.369Z,4.70
2023-03-06T14:54:30.245Z,4.22
2023-03-06T14:57:07.220Z,4.47
2023-03-06T14:59:54.086Z,4.45
2023-03-06T15:02:23.935Z,3.72
2023-03-06T15:05:00.171Z,4.00
2023-03-06T15:07:30.769Z,3.40
2023-03-06T15:09:58.489Z,4.50
2023-03-06T15:12:28.363Z,4.55
2023-03-06T15:15:02.928Z,4.03
2023-03-06T15:17:31.040Z,4.47
2023-03-06T15:20:01.351Z,4.90
2023-03-06T15:22:38.364Z,4.40
2023-03-06T15:25:19.899Z,3.72
2023-03-06T15:28:23.564Z,4.07
2023-03-06T15:31:07.520Z,3.87
2023-03-06T15:33:34.487Z,3.70
2023-03-06T15:36:03.936Z,4.13
2023-03-06T15:38:42.042Z,3.65
2023-03-06T15:41:27.328Z,3.33
2023-03-06T15:43:54.471Z,4.63
2023-03-06T15:46:21.361Z,3.90
2023-03-06T15:48:53.323Z,3.90
2023-03-06T15:51:20.531Z,4.32
2023-03-06T15:53:47.505Z,4.78
2023-03-06T15:56:14.435Z,4.13
2023-03-06T15:58:41.693Z,4.50
2023-03-06T16:01:15.037Z,4.90
2023-03-06T16:03:42.170Z,4.18
2023-03-06T16:06:19.483Z,4.57
2023-03-06T16:08:46.712Z,4.60
2023-03-06T16:11:43.249Z,5.22
2023-03-06T16:14:28.913Z,5.15
2023-03-06T16:16:56.947Z,4.55
2023-03-06T16:19:27.352Z,4.55
2023-03-06T16:21:55.962Z,4.70
2023-03-06T16:24:23.254Z,4.70
2023-03-06T16:26:52.232Z,4.18
2023-03-06T16:29:21.503Z,5.05
2023-03-06T16:31:48.972Z,4.93
2023-03-06T16:34:16.500Z,4.63
2023-03-06T16:36:43.443Z,4.90
2023-03-06T16:39:18.805Z,5.20
2023-03-06T16:41:45.637Z,4.75
2023-03-06T16:44:13.167Z,5.15
2023-03-06T16:46:42.819Z,4.37
2023-03-06T16:49:24.340Z,4.70
2023-03-06T16:51:53.063Z,4.25
2023-03-06T16:54:20.228Z,4.50
2023-03-06T16:56:47.058Z,4.38
2023-03-06T16:59:13.902Z,4.50
2023-03-06T17:01:41.687Z,3.97
2023-03-06T17:04:08.822Z,4.60
2023-03-06T17:06:35.774Z,4.63
2023-03-06T17:09:02.708Z,4.25
2023-03-06T17:11:29.722Z,4.40
2023-03-06T17:13:56.717Z,4.03
2023-03-06T17:16:24.269Z,4.30
2023-03-06T17:18:51.153Z,4.80
2023-03-06T17:21:18.071Z,4.25
2023-03-06T17:23:44.973Z,4.60
2023-03-06T17:26:17.698Z,4.85
2023-03-06T17:28:45.516Z,5.55
2023-03-06T17:31:19.894Z,4.95
2023-03-06T17:33:47.129Z,4.70
2023-03-06T17:36:15.012Z,5.60
2023-03-06T17:38:42.863Z,5.22
2023-03-06T17:41:10.840Z,5.85
2023-03-06T17:43:38.814Z,5.30
2023-03-06T17:46:07.990Z,5.38
2023-03-06T17:48:35.706Z,5.47
2023-03-06T17:51:02.922Z,5.28
2023-03-06T17:53:29.865Z,4.38
2023-03-06T17:55:57.132Z,4.65
2023-03-06T17:58:25.094Z,5.43
2023-03-06T18:00:52.040Z,5.67
2023-03-06T18:03:19.056Z,5.28
2023-03-06T18:05:45.890Z,4.55
2023-03-06T18:08:12.962Z,5.22
2023-03-06T18:10:43.191Z,5.28
2023-03-06T18:13:11.148Z,5.33
2023-03-06T18:15:40.440Z,5.05
2023-03-06T18:18:11.318Z,4.55
2023-03-06T18:20:41.732Z,4.68
2023-03-06T18:23:08.862Z,5.10
2023-03-06T18:25:36.059Z,5.13
2023-03-06T18:28:06.130Z,5.18
2023-03-06T18:30:38.139Z,5.57
2023-03-06T18:33:05.147Z,6.32
2023-03-06T18:35:33.987Z,5.57
2023-03-06T18:38:01.208Z,5.37
2023-03-06T18:40:28.227Z,5.97
2023-03-06T18:42:55.168Z,6.00
2023-03-06T18:45:21.938Z,5.90
2023-03-06T18:47:48.813Z,5.95
2023-03-06T18:50:16.067Z,5.40
2023-03-06T18:52:44.227Z,5.90
2023-03-06T18:55:13.680Z,5.80
2023-03-06T18:57:44.328Z,6.03
2023-03-06T19:00:14.981Z,6.90
2023-03-06T19:02:43.724Z,6.57
2023-03-06T19:05:13.917Z,7.63
2023-03-06T19:07:40.812Z,7.05
2023-03-06T19:10:08.039Z,6.97
2023-03-06T19:12:35.017Z,6.93
2023-03-06T19:15:03.339Z,6.73
2023-03-06T19:17:30.130Z,6.65
2023-03-06T19:19:57.056Z,6.88
2023-03-06T19:22:23.863Z,6.75
2023-03-06T19:24:53.719Z,7.05
2023-03-06T19:27:20.650Z,10.57
2023-03-06T19:29:47.449Z,9.52
2023-03-06T19:32:14.323Z,8.32
2023-03-06T19:34:44.410Z,7.07
2023-03-06T19:37:11.255Z,7.05
2023-03-06T19:39:38.020Z,6.93
2023-03-06T19:42:05.021Z,7.47
2023-03-06T19:44:32.016Z,9.45
2023-03-06T19:46:58.942Z,10.98
2023-03-06T19:49:26.005Z,10.35
2023-03-06T19:51:54.474Z,9.73
2023-03-06T19:54:21.406Z,10.68
2023-03-06T19:56:48.336Z,10.07
2023-03-06T19:59:15.088Z,13.13
2023-03-06T20:01:41.884Z,13.15
2023-03-06T20:04:08.969Z,14.37
2023-03-06T20:06:35.956Z,15.55
2023-03-06T20:09:07.140Z,16.10
2023-03-06T20:11:34.141Z,13.55
2023-03-06T20:14:03.167Z,14.10
2023-03-06T20:16:30.987Z,11.90
2023-03-06T20:18:59.077Z,9.43
2023-03-06T20:21:27.813Z,10.27
2023-03-06T20:23:55.429Z,10.45
2023-03-06T20:26:22.344Z,9.88
2023-03-06T20:28:49.198Z,8.73
2023-03-06T20:31:21.005Z,10.00
2023-03-06T20:33:52.518Z,11.02
2023-03-06T20:36:27.658Z,10.60
2023-03-06T20:38:55.747Z,10.85
2023-03-06T20:41:27.499Z,11.30
2023-03-06T20:43:54.939Z,10.15
2023-03-06T20:46:23.300Z,9.80
2023-03-06T20:48:52.004Z,12.63
2023-03-06T20:51:21.624Z,12.52
2023-03-06T20:53:50.747Z,9.30
2023-03-06T20:56:23.450Z,11.05
2023-03-06T20:58:50.654Z,11.23
2023-03-06T21:01:28.731Z,9.20
2023-03-06T21:03:56.516Z,10.05
2023-03-06T21:06:23.973Z,8.23
2023-03-06T21:08:51.654Z,9.30
2023-03-06T21:11:21.568Z,10.77
2023-03-06T21:13:48.899Z,10.65
2023-03-06T21:16:19.302Z,9.68
2023-03-06T21:18:46.873Z,12.10
2023-03-06T21:21:24.878Z,13.45
2023-03-06T21:23:52.279Z,13.85
2023-03-06T21:26:21.983Z,10.38
2023-03-06T21:28:49.535Z,10.07
2023-03-06T21:31:19.279Z,11.70
2023-03-06T21:33:47.534Z,11.63
2023-03-06T21:36:15.204Z,10.70
2023-03-06T21:38:42.348Z,10.32
2023-03-06T21:41:20.349Z,12.95
2023-03-06T21:43:47.332Z,13.37
2023-03-06T21:46:14.389Z,14.20
2023-03-06T21:48:41.490Z,12.85
2023-03-06T21:51:13.601Z,11.05
2023-03-06T21:53:44.455Z,9.85
2023-03-06T21:56:11.945Z,13.03
2023-03-06T21:58:39.119Z,11.15
2023-03-06T22:01:11.302Z,10.50
2023-03-06T22:03:38.399Z,10.93
2023-03-06T22:06:10.351Z,12.70
2023-03-06T22:08:37.224Z,13.57
2023-03-06T22:11:09.484Z,13.00
2023-03-06T22:13:37.249Z,13.50
2023-03-06T22:16:05.171Z,13.88
2023-03-06T22:18:33.061Z,13.65
2023-03-06T22:20:59.998Z,12.90
2023-03-06T22:23:27.027Z,13.68
2023-03-06T22:25:53.814Z,15.07
2023-03-06T22:28:20.670Z,14.40
2023-03-06T22:30:47.408Z,14.40
2023-03-06T22:33:14.219Z,14.00
2023-03-06T22:35:41.094Z,12.82
2023-03-06T22:38:07.858Z,13.80
2023-03-06T22:40:34.660Z,12.60
2023-03-06T22:43:01.551Z,14.45
2023-03-06T22:45:28.412Z,11.57
2023-03-06T22:48:02.341Z,11.55
2023-03-06T22:50:36.052Z,12.05
2023-03-06T22:53:02.871Z,12.45
2023-03-06T22:55:29.712Z,12.57
2023-03-06T22:57:56.579Z,13.63
2023-03-06T23:00:23.551Z,15.00
2023-03-06T23:02:50.410Z,16.45
2023-03-06T23:05:17.312Z,14.85
2023-03-06T23:07:44.232Z,12.48
2023-03-06T23:10:11.310Z,13.67
2023-03-06T23:12:38.322Z,12.60
2023-03-06T23:15:05.547Z,11.75
2023-03-06T23:17:32.373Z,17.98
2023-03-06T23:19:59.159Z,19.13
2023-03-06T23:22:26.228Z,16.47
2023-03-06T23:24:53.017Z,14.50
2023-03-06T23:27:19.857Z,15.30
2023-03-06T23:29:50.024Z,11.43
2023-03-06T23:32:16.817Z,14.73
2023-03-06T23:34:43.721Z,14.33
2023-03-06T23:37:10.548Z,15.18
2023-03-06T23:39:37.424Z,16.77
2023-03-06T23:42:04.345Z,14.48
2023-03-06T23:44:31.080Z,15.45
2023-03-06T23:46:57.878Z,15.30
2023-03-06T23:49:24.682Z,15.50
2023-03-06T23:51:51.487Z,15.57
2023-03-06T23:54:18.268Z,15.75
2023-03-06T23:56:45.277Z,16.10
2023-03-06T23:59:12.511Z,15.40
